Aérodrome :
LOGIN :

S'inscrire | Disclaimer

   EN    FR    IT 

 










Légende :    VFR   VFR Marginal   IFR   IFR Intensif   IFR Très Intensif
Visi : 
Plafond : 
>= 8 km
>= 3000ft
5 à 8 km
1000 à 3000 ft
1500m à 5 km
500 à 1000 ft
800 à 1500m
200 à 500 ft
< 800m
< 200 ft
Symboles :   Orages  Brouillard  Fortes neiges  Fortes précipitations  Vent > 20 kt
SIGMETs :   Divers  Orages  Givrage  Turbulence  Onde Orograph.  Cendres Volcan.






- Altitude de l'aérodrome : 741 ft
- Code IATA : PED


LKPD - Pardubice AB

DERNIER METAR :
  • 080630Z VRB01KT CAVOK 21/16 Q1022 NOSIG RMK BLU BLU

METARs EXPIRÉS :
  • 080600Z VRB01KT CAVOK 20/16 Q1022 NOSIG
  • 080530Z 00000KT CAVOK 18/15 Q1022 NOSIG RMK BLU BLU
  • 080500Z 00000KT CAVOK 17/15 Q1022 NOSIG RMK BLU BLU
  • 080430Z 21002KT CAVOK 15/14 Q1022 NOSIG RMK BLU BLU
  • 080400Z 00000KT CAVOK 15/14 Q1022 NOSIG RMK BLU BLU

TAF TAF LKPD
Valide du 08 à 06h jusqu'au 09 à 06h UTC


080500Z 0806/0906 VRB02KT CAVOK
TEMPO 0812/0822 07006KT



MET'MAP, la Météo Aéronautique d'un coup d'oeil ! - Copyright ORBIFLY Décembre 2007 - Disclaimer

ORBIFLY MET'MAP TEAM :

Programmation & Développement : Alexandra Zaïnal
Sur une idée originale de : Baudouin d'Aumeries
Assistance à la programmation : Marc-Olivier Méhu
Soutien technique & logistique : Manuel Goepfert

Contact : metmap@orbifly.com




SOURCES & CREDITS :

   NOAA